createdAt,value
2023-11-18T00:00:19.993Z,3.28
2023-11-18T00:01:19.979Z,3.26
2023-11-18T00:02:19.991Z,3.29
2023-11-18T00:03:19.970Z,3.33
2023-11-18T00:04:19.922Z,3.24
2023-11-18T00:05:19.861Z,3.28
2023-11-18T00:06:19.832Z,3.28
2023-11-18T00:07:19.803Z,3.32
2023-11-18T00:08:19.780Z,3.31
2023-11-18T00:09:19.754Z,3.40
2023-11-18T00:10:19.707Z,3.36
2023-11-18T00:11:19.712Z,3.43
2023-11-18T00:12:19.660Z,3.33
2023-11-18T00:13:19.634Z,3.21
2023-11-18T00:14:19.595Z,3.18
2023-11-18T00:15:19.570Z,3.31
2023-11-18T00:16:19.571Z,3.29
2023-11-18T00:17:19.517Z,3.36
2023-11-18T00:18:19.493Z,3.31
2023-11-18T00:19:19.467Z,3.35
2023-11-18T00:20:19.433Z,3.43
2023-11-18T00:21:19.400Z,3.42
2023-11-18T00:22:19.371Z,3.42
2023-11-18T00:23:21.901Z,3.50
2023-11-18T00:24:19.313Z,3.33
2023-11-18T00:25:19.294Z,3.48
2023-11-18T00:26:19.255Z,3.50
2023-11-18T00:27:19.250Z,3.45
2023-11-18T00:28:19.197Z,3.48
2023-11-18T00:29:19.186Z,3.42
2023-11-18T00:30:19.155Z,3.35
2023-11-18T00:31:19.198Z,3.47
2023-11-18T00:32:19.151Z,3.31
2023-11-18T00:33:19.129Z,3.24
2023-11-18T00:34:19.032Z,3.20
2023-11-18T00:35:19.023Z,3.20
2023-11-18T00:36:19.016Z,3.17
2023-11-18T00:37:18.945Z,3.11
2023-11-18T00:38:18.934Z,3.11
2023-11-18T00:39:18.896Z,3.11
2023-11-18T00:40:18.864Z,3.06
2023-11-18T00:41:18.975Z,3.06
2023-11-18T00:42:18.806Z,2.93
2023-11-18T00:43:18.797Z,2.93
2023-11-18T00:44:18.756Z,3.05
2023-11-18T00:45:18.719Z,2.97
2023-11-18T00:46:18.693Z,2.97
2023-11-18T00:47:18.754Z,2.99
2023-11-18T00:48:18.650Z,2.96
2023-11-18T00:49:18.645Z,3.02
2023-11-18T00:50:18.615Z,2.96
2023-11-18T00:51:18.552Z,2.93
2023-11-18T00:52:18.518Z,2.89
2023-11-18T00:53:18.488Z,2.99
2023-11-18T00:54:18.460Z,2.96
2023-11-18T00:55:18.436Z,2.97
2023-11-18T00:56:18.415Z,2.93
2023-11-18T00:57:18.387Z,2.96
2023-11-18T00:58:18.358Z,2.99
2023-11-18T00:59:18.348Z,3.05
2023-11-18T01:00:18.299Z,3.17
2023-11-18T01:01:18.285Z,3.14
2023-11-18T01:02:18.277Z,3.23
2023-11-18T01:03:18.316Z,3.23
2023-11-18T01:04:18.179Z,3.31
2023-11-18T01:05:18.254Z,3.29
2023-11-18T01:06:18.119Z,3.35
2023-11-18T01:07:18.098Z,3.29
2023-11-18T01:08:18.066Z,3.35
2023-11-18T01:09:18.036Z,3.32
2023-11-18T01:10:18.014Z,3.43
2023-11-18T01:11:17.977Z,3.45
2023-11-18T01:12:17.970Z,3.45
2023-11-18T01:13:17.939Z,3.43
2023-11-18T01:14:17.898Z,3.43
2023-11-18T01:15:17.890Z,3.43
2023-11-18T01:16:17.837Z,3.45
2023-11-18T01:17:17.832Z,3.35
2023-11-18T01:18:17.862Z,3.48
2023-11-18T01:19:17.755Z,3.45
2023-11-18T01:20:17.727Z,3.48
2023-11-18T01:21:17.709Z,3.33
2023-11-18T01:22:17.668Z,3.29
2023-11-18T01:23:17.650Z,3.42
2023-11-18T01:24:17.617Z,3.36
2023-11-18T01:25:17.586Z,3.31
2023-11-18T01:26:17.552Z,3.33
2023-11-18T01:27:17.526Z,3.31
2023-11-18T01:28:17.496Z,3.32
2023-11-18T01:29:17.468Z,3.35
2023-11-18T01:30:17.436Z,3.28
2023-11-18T01:31:17.448Z,3.24
2023-11-18T01:32:17.443Z,3.24
2023-11-18T01:33:17.430Z,3.21
2023-11-18T01:34:17.335Z,3.24
2023-11-18T01:35:17.302Z,3.17
2023-11-18T01:36:17.270Z,3.14
2023-11-18T01:37:17.249Z,3.17
2023-11-18T01:38:17.214Z,3.20
2023-11-18T01:39:17.184Z,3.24
2023-11-18T01:40:17.157Z,3.17
2023-11-18T01:41:17.135Z,3.20
2023-11-18T01:42:17.106Z,3.11
2023-11-18T01:43:17.076Z,3.11
2023-11-18T01:44:17.105Z,3.13
2023-11-18T01:45:17.023Z,3.18
2023-11-18T01:46:17.019Z,3.11
2023-11-18T01:47:16.988Z,3.03
2023-11-18T01:48:16.933Z,3.02
2023-11-18T01:49:16.914Z,3.06
2023-11-18T01:50:16.878Z,3.05
2023-11-18T01:51:16.852Z,2.96
2023-11-18T01:52:16.826Z,2.96
2023-11-18T01:53:16.826Z,2.97
2023-11-18T01:54:17.069Z,2.74
2023-11-18T01:55:16.735Z,2.72
2023-11-18T01:56:16.707Z,2.57
2023-11-18T01:57:16.683Z,2.46
2023-11-18T01:58:16.653Z,2.39
2023-11-18T01:59:16.628Z,2.31
2023-11-18T02:00:16.614Z,2.31
2023-11-18T02:01:16.602Z,2.34
2023-11-18T02:02:16.589Z,2.38
2023-11-18T02:03:16.616Z,2.52
2023-11-18T02:04:16.608Z,2.46
2023-11-18T02:05:16.546Z,2.52
2023-11-18T02:06:16.428Z,2.61
2023-11-18T02:07:16.404Z,2.63
2023-11-18T02:08:16.367Z,2.60
2023-11-18T02:09:16.345Z,2.64
2023-11-18T02:10:16.325Z,2.61
2023-11-18T02:11:16.295Z,2.72
2023-11-18T02:12:16.251Z,2.66
2023-11-18T02:13:16.229Z,2.71
2023-11-18T02:14:16.196Z,2.81
2023-11-18T02:15:16.180Z,2.78
2023-11-18T02:16:16.138Z,2.75
2023-11-18T02:17:16.116Z,2.72
2023-11-18T02:18:16.142Z,2.79
2023-11-18T02:19:16.076Z,2.69
2023-11-18T02:20:16.031Z,2.64
2023-11-18T02:21:15.998Z,2.75
2023-11-18T02:22:15.964Z,2.79
2023-11-18T02:23:15.942Z,2.84
2023-11-18T02:24:15.915Z,2.82
2023-11-18T02:25:15.893Z,2.87
2023-11-18T02:26:15.858Z,2.89
2023-11-18T02:27:15.829Z,2.85
2023-11-18T02:28:15.799Z,2.75
2023-11-18T02:29:15.795Z,2.84
2023-11-18T02:30:15.746Z,2.87
2023-11-18T02:31:15.715Z,2.84
2023-11-18T02:32:15.684Z,2.89
2023-11-18T02:33:15.847Z,2.87
2023-11-18T02:34:15.628Z,2.85
2023-11-18T02:35:15.619Z,2.85
2023-11-18T02:36:15.582Z,2.75
2023-11-18T02:37:15.549Z,2.84
2023-11-18T02:38:15.527Z,2.85
2023-11-18T02:39:15.490Z,2.79
2023-11-18T02:40:15.707Z,2.82
2023-11-18T02:41:15.442Z,2.77
2023-11-18T02:42:15.403Z,2.79
2023-11-18T02:43:15.387Z,2.69
2023-11-18T02:44:15.342Z,2.69
2023-11-18T02:45:15.313Z,2.72
2023-11-18T02:46:15.357Z,2.74
2023-11-18T02:48:15.287Z,2.66
2023-11-18T02:49:15.212Z,2.53
2023-11-18T02:50:15.196Z,2.57
2023-11-18T02:51:15.170Z,2.49
2023-11-18T02:52:15.112Z,2.59
2023-11-18T02:53:15.086Z,2.60
2023-11-18T02:54:15.072Z,2.59
2023-11-18T02:55:15.034Z,2.56
2023-11-18T02:56:15.010Z,2.61
2023-11-18T02:57:14.998Z,2.52
2023-11-18T02:58:14.944Z,2.59
2023-11-18T02:59:14.938Z,2.57
2023-11-18T03:00:14.890Z,2.61
2023-11-18T03:01:14.879Z,2.64
2023-11-18T03:02:14.954Z,2.57
2023-11-18T03:03:14.846Z,2.46
2023-11-18T03:04:14.794Z,2.46
2023-11-18T03:05:14.750Z,2.49
2023-11-18T03:06:14.724Z,2.42
2023-11-18T03:07:14.739Z,2.59
2023-11-18T03:08:14.689Z,2.60
2023-11-18T03:09:14.637Z,2.60
2023-11-18T03:10:14.616Z,2.64
2023-11-18T03:11:14.573Z,2.69
2023-11-18T03:12:14.551Z,2.77
2023-11-18T03:13:14.521Z,2.77
2023-11-18T03:14:14.584Z,2.72
2023-11-18T03:15:14.476Z,2.75
2023-11-18T03:16:14.463Z,2.77
2023-11-18T03:17:14.463Z,2.78
2023-11-18T03:18:14.382Z,2.81
2023-11-18T03:19:14.350Z,2.79
2023-11-18T03:20:14.348Z,2.72
2023-11-18T03:21:14.293Z,2.78
2023-11-18T03:22:14.266Z,2.77
2023-11-18T03:23:14.311Z,2.82
2023-11-18T03:24:14.219Z,2.89
2023-11-18T03:25:14.177Z,2.77
2023-11-18T03:26:14.154Z,2.79
2023-11-18T03:27:14.143Z,2.81
2023-11-18T03:28:14.105Z,2.84
2023-11-18T03:29:14.060Z,2.79
2023-11-18T03:30:14.152Z,2.63
2023-11-18T03:31:14.012Z,2.75
2023-11-18T03:32:13.985Z,2.78
2023-11-18T03:33:13.971Z,2.81
2023-11-18T03:34:13.937Z,2.79
2023-11-18T03:35:14.039Z,2.75
2023-11-18T03:36:13.890Z,2.74
2023-11-18T03:37:13.835Z,2.78
2023-11-18T03:38:13.807Z,2.75
2023-11-18T03:39:13.795Z,2.78
2023-11-18T03:40:13.761Z,2.82
2023-11-18T03:41:13.799Z,2.77
2023-11-18T03:42:13.696Z,2.79
2023-11-18T03:43:13.663Z,2.75
2023-11-18T03:44:13.632Z,2.84
2023-11-18T03:45:13.610Z,2.85
2023-11-18T03:46:13.635Z,2.79
2023-11-18T03:47:13.569Z,2.78
2023-11-18T03:48:13.527Z,2.84
2023-11-18T03:49:13.490Z,2.81
2023-11-18T03:50:13.504Z,2.79
2023-11-18T03:51:13.433Z,2.82
2023-11-18T03:52:13.415Z,2.84
2023-11-18T03:53:13.384Z,2.87
2023-11-18T03:54:13.348Z,2.90
2023-11-18T03:55:13.349Z,2.87
2023-11-18T03:56:13.293Z,2.89
2023-11-18T03:57:13.296Z,2.87
2023-11-18T03:58:13.238Z,2.89
2023-11-18T03:59:13.214Z,2.95
2023-11-18T04:00:13.196Z,2.96
2023-11-18T04:01:13.161Z,2.93
2023-11-18T04:02:13.203Z,2.87
2023-11-18T04:03:13.198Z,2.79
2023-11-18T04:04:13.081Z,2.75
2023-11-18T04:05:13.122Z,2.69
2023-11-18T04:06:13.013Z,2.69
2023-11-18T04:07:12.987Z,2.69
2023-11-18T04:08:12.998Z,2.75
2023-11-18T04:09:12.919Z,2.78
2023-11-18T04:10:12.896Z,2.75
2023-11-18T04:11:12.957Z,2.85
2023-11-18T04:12:12.833Z,2.81
2023-11-18T04:13:12.826Z,2.85
2023-11-18T04:14:12.813Z,2.90
2023-11-18T04:15:12.754Z,2.81
2023-11-18T04:16:12.741Z,2.99
2023-11-18T04:17:12.914Z,2.93
2023-11-18T04:18:12.684Z,2.92
2023-11-18T04:19:12.636Z,2.90
2023-11-18T04:20:12.925Z,2.81
2023-11-18T04:21:12.587Z,2.84
2023-11-18T04:22:12.563Z,2.95
2023-11-18T04:23:12.546Z,2.99
2023-11-18T04:24:12.505Z,2.87
2023-11-18T04:25:12.464Z,2.84
2023-11-18T04:26:12.505Z,2.93
2023-11-18T04:27:12.439Z,2.81
2023-11-18T04:28:12.392Z,2.90
2023-11-18T04:29:12.402Z,2.89
2023-11-18T04:30:12.326Z,2.84
2023-11-18T04:31:12.341Z,2.84
2023-11-18T04:32:12.288Z,2.89
2023-11-18T04:33:12.238Z,2.84
2023-11-18T04:34:12.210Z,2.95
2023-11-18T04:35:12.210Z,2.95
2023-11-18T04:36:12.161Z,2.82
2023-11-18T04:37:12.154Z,2.87
2023-11-18T04:38:12.159Z,2.85
2023-11-18T04:39:12.061Z,2.81
2023-11-18T04:40:12.108Z,2.89
2023-11-18T04:41:12.076Z,2.87
2023-11-18T04:42:12.001Z,2.89
2023-11-18T04:43:11.996Z,2.89
2023-11-18T04:44:11.982Z,2.90
2023-11-18T04:45:11.899Z,2.84
2023-11-18T04:46:11.884Z,2.87
2023-11-18T04:47:11.953Z,2.87
2023-11-18T04:48:11.914Z,2.84
2023-11-18T04:49:11.875Z,2.84
2023-11-18T04:50:11.821Z,2.90
2023-11-18T04:51:11.735Z,2.82
2023-11-18T04:52:11.704Z,2.87
2023-11-18T04:53:11.720Z,2.90
2023-11-18T04:54:11.649Z,2.87
2023-11-18T04:55:11.617Z,2.85
2023-11-18T04:56:12.055Z,2.82
2023-11-18T04:57:11.554Z,2.87
2023-11-18T04:58:11.524Z,2.93
2023-11-18T04:59:11.548Z,2.84
2023-11-18T05:00:11.581Z,2.96
2023-11-18T05:01:11.474Z,2.93
2023-11-18T05:02:11.589Z,2.97
2023-11-18T05:03:11.469Z,2.92
2023-11-18T05:04:11.394Z,2.92
2023-11-18T05:05:11.384Z,2.95
2023-11-18T05:06:11.298Z,2.95
2023-11-18T05:07:11.266Z,2.97
2023-11-18T05:08:11.345Z,3.02
2023-11-18T05:09:11.211Z,3.02
2023-11-18T05:10:11.185Z,2.99
2023-11-18T05:11:11.324Z,3.05
2023-11-18T05:12:11.140Z,3.00
2023-11-18T05:13:11.114Z,3.02
2023-11-18T05:14:11.167Z,2.99
2023-11-18T05:15:11.103Z,3.00
2023-11-18T05:16:11.017Z,2.96
2023-11-18T05:17:11.034Z,2.93
2023-11-18T05:18:11.032Z,2.89
2023-11-18T05:19:10.924Z,2.96
2023-11-18T05:20:10.932Z,2.96
2023-11-18T05:21:10.873Z,3.05
2023-11-18T05:22:10.847Z,3.06
2023-11-18T05:23:10.876Z,3.05
2023-11-18T05:24:10.803Z,3.00
2023-11-18T05:25:10.902Z,3.02
2023-11-18T05:26:10.801Z,2.96
2023-11-18T05:27:10.699Z,3.08
2023-11-18T05:28:10.678Z,3.00
2023-11-18T05:29:10.699Z,3.03
2023-11-18T05:30:10.672Z,3.05
2023-11-18T05:31:10.644Z,3.00
2023-11-18T05:32:10.622Z,2.93
2023-11-18T05:33:10.559Z,2.92
2023-11-18T05:34:10.512Z,2.96
2023-11-18T05:35:10.514Z,2.85
2023-11-18T05:36:10.460Z,2.93
2023-11-18T05:37:10.418Z,2.92
2023-11-18T05:38:10.462Z,2.99
2023-11-18T05:39:10.431Z,2.92
2023-11-18T05:40:10.335Z,2.92
2023-11-18T05:41:10.350Z,2.93
2023-11-18T05:42:10.272Z,3.00
2023-11-18T05:43:10.243Z,2.92
2023-11-18T05:44:10.317Z,3.02
2023-11-18T05:45:10.193Z,2.99
2023-11-18T05:46:10.190Z,2.99
2023-11-18T05:47:10.220Z,2.95
2023-11-18T05:48:10.145Z,3.05
2023-11-18T05:49:10.071Z,3.02
2023-11-18T05:50:10.075Z,2.99
2023-11-18T05:51:10.038Z,3.06
2023-11-18T05:52:09.990Z,3.03
2023-11-18T05:53:09.964Z,2.95
2023-11-18T05:54:09.935Z,2.97
2023-11-18T05:55:09.904Z,3.03
2023-11-18T05:56:09.930Z,3.05
2023-11-18T05:57:09.848Z,3.02
2023-11-18T05:58:09.824Z,2.99
2023-11-18T05:59:09.861Z,3.11
2023-11-18T06:00:09.769Z,3.06
2023-11-18T06:01:09.744Z,3.05
2023-11-18T06:02:09.837Z,3.06
2023-11-18T06:03:09.791Z,2.99
2023-11-18T06:04:09.862Z,3.06
2023-11-18T06:05:09.693Z,3.13
2023-11-18T06:06:09.596Z,3.05
2023-11-18T06:07:09.569Z,3.11
2023-11-18T06:08:09.575Z,3.15
2023-11-18T06:09:09.506Z,3.15
2023-11-18T06:10:09.484Z,3.14
2023-11-18T06:11:09.497Z,3.20
2023-11-18T06:12:09.424Z,3.23
2023-11-18T06:13:09.390Z,3.23
2023-11-18T06:14:09.406Z,3.18
2023-11-18T06:15:09.339Z,3.26
2023-11-18T06:16:09.312Z,3.21
2023-11-18T06:17:09.344Z,3.31
2023-11-18T06:18:09.316Z,3.24
2023-11-18T06:19:09.249Z,3.20
2023-11-18T06:20:09.244Z,3.28
2023-11-18T06:21:09.168Z,3.26
2023-11-18T06:22:09.138Z,3.24
2023-11-18T06:23:09.176Z,3.21
2023-11-18T06:24:09.078Z,3.21
2023-11-18T06:25:09.075Z,3.23
2023-11-18T06:26:09.105Z,3.28
2023-11-18T06:27:08.996Z,3.28
2023-11-18T06:28:09.021Z,3.23
2023-11-18T06:29:08.982Z,3.31
2023-11-18T06:30:08.919Z,3.24
2023-11-18T06:31:08.879Z,3.21
2023-11-18T06:32:08.917Z,3.24
2023-11-18T06:33:08.885Z,3.21
2023-11-18T06:34:08.799Z,3.18
2023-11-18T06:35:08.841Z,3.23
2023-11-18T06:36:08.737Z,3.26
2023-11-18T06:37:08.710Z,3.18
2023-11-18T06:38:08.725Z,3.23
2023-11-18T06:39:08.653Z,3.28
2023-11-18T06:40:08.629Z,3.33
2023-11-18T06:41:08.659Z,3.23
2023-11-18T06:42:08.637Z,3.23
2023-11-18T06:43:08.536Z,3.28
2023-11-18T06:44:08.561Z,3.33
2023-11-18T06:45:08.489Z,3.26
2023-11-18T06:46:10.587Z,3.23
2023-11-18T06:47:08.523Z,3.31
2023-11-18T06:48:08.488Z,3.33
2023-11-18T06:49:08.433Z,3.33
2023-11-18T06:50:08.380Z,3.33
2023-11-18T06:51:08.326Z,3.29
2023-11-18T06:52:08.287Z,3.39
2023-11-18T06:53:08.285Z,3.28
2023-11-18T06:54:08.229Z,3.32
2023-11-18T06:55:08.193Z,3.39
2023-11-18T06:56:08.216Z,3.32
2023-11-18T06:57:08.136Z,3.20
2023-11-18T06:58:08.124Z,3.29
2023-11-18T06:59:08.188Z,3.21
2023-11-18T07:00:08.060Z,3.15
2023-11-18T07:01:08.071Z,3.26
2023-11-18T07:02:08.066Z,3.21
2023-11-18T07:03:08.061Z,3.20
2023-11-18T07:04:07.941Z,3.21
2023-11-18T07:05:08.020Z,3.17
2023-11-18T07:06:07.898Z,3.20
2023-11-18T07:07:07.881Z,3.21
2023-11-18T07:08:07.828Z,3.24
2023-11-18T07:09:07.798Z,3.26
2023-11-18T07:10:07.794Z,3.29
2023-11-18T07:11:07.789Z,3.31
2023-11-18T07:12:07.719Z,3.31
2023-11-18T07:13:07.692Z,3.29
2023-11-18T07:14:07.718Z,3.29
2023-11-18T07:15:07.630Z,3.32
2023-11-18T07:16:07.612Z,3.32
2023-11-18T07:17:07.632Z,3.39
2023-11-18T07:18:07.591Z,3.39
2023-11-18T07:19:07.529Z,3.36
2023-11-18T07:20:07.487Z,3.42
2023-11-18T07:21:07.472Z,3.39
2023-11-18T07:22:07.437Z,3.43
2023-11-18T07:23:07.445Z,3.42
2023-11-18T07:24:07.378Z,3.43
2023-11-18T07:25:07.361Z,3.45
2023-11-18T07:26:07.373Z,3.43
2023-11-18T07:27:07.301Z,3.39
2023-11-18T07:28:07.272Z,3.36
2023-11-18T07:29:07.314Z,3.48
2023-11-18T07:30:07.205Z,3.43
2023-11-18T07:31:07.192Z,3.36
2023-11-18T07:32:07.199Z,3.47
2023-11-18T07:33:07.148Z,3.45
2023-11-18T07:34:07.300Z,3.45
2023-11-18T07:35:07.118Z,3.48
2023-11-18T07:36:07.072Z,3.50
2023-11-18T07:37:07.079Z,3.55
2023-11-18T07:38:07.042Z,3.50
2023-11-18T07:39:07.042Z,3.48
2023-11-18T07:40:06.992Z,3.52
2023-11-18T07:41:07.034Z,3.50
2023-11-18T07:42:06.873Z,3.52
2023-11-18T07:43:06.833Z,3.52
2023-11-18T07:44:06.861Z,3.48
2023-11-18T07:45:06.789Z,3.50
2023-11-18T07:46:06.755Z,3.50
2023-11-18T07:47:06.752Z,3.52
2023-11-18T07:48:06.750Z,3.54
2023-11-18T07:49:06.667Z,3.57
2023-11-18T07:50:06.648Z,3.43
2023-11-18T07:51:06.615Z,3.54
2023-11-18T07:52:06.575Z,3.47
2023-11-18T07:53:06.593Z,3.48
2023-11-18T07:54:06.519Z,3.62
2023-11-18T07:55:06.518Z,3.43
2023-11-18T07:56:06.490Z,3.51
2023-11-18T07:57:06.442Z,3.54
2023-11-18T07:58:06.399Z,3.62
2023-11-18T07:59:06.411Z,3.66
2023-11-18T08:00:06.351Z,3.68
2023-11-18T08:01:06.347Z,3.62
2023-11-18T08:02:07.396Z,3.68
2023-11-18T08:03:06.375Z,3.68
2023-11-18T08:04:06.259Z,3.73
2023-11-18T08:05:06.269Z,3.69
2023-11-18T08:06:06.176Z,3.73
2023-11-18T08:07:06.166Z,3.75
2023-11-18T08:08:06.198Z,3.75
2023-11-18T08:09:06.096Z,3.83
2023-11-18T08:10:06.085Z,3.86
2023-11-18T08:11:06.100Z,3.91
2023-11-18T08:12:06.012Z,3.87
2023-11-18T08:13:05.982Z,3.96
2023-11-18T08:14:06.008Z,3.91
2023-11-18T08:15:05.929Z,3.94
2023-11-18T08:16:05.929Z,3.90
2023-11-18T08:17:05.976Z,3.84
2023-11-18T08:18:05.892Z,4.00
2023-11-18T08:19:05.815Z,3.98
2023-11-18T08:20:05.807Z,4.05
2023-11-18T08:21:05.758Z,4.02
2023-11-18T08:22:05.729Z,4.05
2023-11-18T08:23:05.715Z,4.00
2023-11-18T08:24:05.684Z,4.05
2023-11-18T08:25:05.647Z,4.16
2023-11-18T08:26:05.647Z,4.14
2023-11-18T08:27:05.612Z,4.11
2023-11-18T08:28:05.558Z,4.15
2023-11-18T08:29:05.597Z,4.11
2023-11-18T08:30:05.508Z,4.24
2023-11-18T08:31:05.522Z,4.22
2023-11-18T08:32:05.569Z,4.29
2023-11-18T08:33:06.737Z,4.26
2023-11-18T08:34:05.402Z,4.24
2023-11-18T08:35:05.385Z,4.27
2023-11-18T08:36:05.337Z,4.29
2023-11-18T08:37:05.312Z,4.22
2023-11-18T08:38:05.325Z,4.30
2023-11-18T08:39:05.260Z,4.23
2023-11-18T08:40:05.222Z,4.33
2023-11-18T08:41:05.203Z,4.27
2023-11-18T08:42:05.169Z,4.32
2023-11-18T08:43:05.156Z,4.33
2023-11-18T08:44:14.073Z,4.32
2023-11-18T08:45:06.149Z,4.32
2023-11-18T08:46:05.102Z,4.45
2023-11-18T08:47:05.046Z,4.41
2023-11-18T08:48:05.040Z,4.51
2023-11-18T08:49:04.970Z,4.44
2023-11-18T08:50:04.988Z,4.37
2023-11-18T08:51:04.915Z,4.40
2023-11-18T08:52:04.885Z,4.41
2023-11-18T08:53:04.878Z,4.42
2023-11-18T08:54:04.829Z,4.48
2023-11-18T08:55:04.804Z,4.42
2023-11-18T08:56:04.824Z,4.37
2023-11-18T08:57:04.745Z,4.47
2023-11-18T08:58:04.732Z,4.54
2023-11-18T08:59:04.715Z,4.45
2023-11-18T09:00:04.677Z,4.55
2023-11-18T09:01:04.637Z,4.52
2023-11-18T09:02:04.717Z,4.51
2023-11-18T09:03:04.758Z,4.51
2023-11-18T09:04:04.652Z,4.55
2023-11-18T09:05:04.598Z,4.58
2023-11-18T09:06:04.516Z,4.52
2023-11-18T09:07:04.472Z,4.60
2023-11-18T09:08:04.487Z,4.59
2023-11-18T09:09:04.406Z,4.60
2023-11-18T09:10:04.381Z,4.66
2023-11-18T09:11:04.403Z,4.60
2023-11-18T09:12:04.326Z,4.65
2023-11-18T09:13:04.303Z,4.59
2023-11-18T09:14:04.295Z,4.65
2023-11-18T09:15:04.264Z,4.67
2023-11-18T09:16:04.218Z,4.65
2023-11-18T09:17:04.216Z,4.82
2023-11-18T09:18:04.296Z,4.72
2023-11-18T09:19:04.522Z,4.72
2023-11-18T09:20:04.135Z,4.67
2023-11-18T09:21:04.074Z,4.72
2023-11-18T09:22:04.049Z,4.75
2023-11-18T09:23:04.092Z,4.75
2023-11-18T09:24:03.984Z,4.73
2023-11-18T09:25:03.986Z,4.77
2023-11-18T09:26:03.979Z,4.72
2023-11-18T09:27:03.917Z,4.72
2023-11-18T09:28:03.884Z,4.70
2023-11-18T09:29:03.926Z,4.69
2023-11-18T09:30:03.829Z,4.75
2023-11-18T09:31:03.854Z,4.80
2023-11-18T09:32:03.802Z,4.62
2023-11-18T09:33:03.988Z,4.73
2023-11-18T09:34:03.708Z,4.72
2023-11-18T09:35:03.738Z,4.69
2023-11-18T09:36:03.650Z,4.82
2023-11-18T09:37:03.628Z,4.75
2023-11-18T09:38:03.644Z,4.75
2023-11-18T09:39:03.584Z,4.73
2023-11-18T09:40:03.537Z,4.69
2023-11-18T09:41:03.901Z,4.73
2023-11-18T09:42:03.492Z,4.73
2023-11-18T09:43:03.457Z,4.80
2023-11-18T09:44:03.584Z,4.84
2023-11-18T09:45:03.403Z,4.84
2023-11-18T09:46:03.398Z,4.86
2023-11-18T09:47:03.436Z,4.89
2023-11-18T09:48:03.356Z,4.91
2023-11-18T09:49:03.288Z,4.88
2023-11-18T09:50:03.296Z,4.89
2023-11-18T09:51:03.322Z,4.96
2023-11-18T09:52:03.205Z,4.92
2023-11-18T09:53:03.225Z,4.92
2023-11-18T09:54:03.168Z,5.09
2023-11-18T09:55:03.120Z,4.94
2023-11-18T09:56:03.100Z,5.02
2023-11-18T09:57:03.069Z,5.07
2023-11-18T09:58:03.032Z,5.12
2023-11-18T09:59:03.035Z,5.10
2023-11-18T10:00:03.013Z,5.12
2023-11-18T10:01:02.958Z,5.22
2023-11-18T10:02:03.046Z,5.27
2023-11-18T10:03:03.237Z,5.17
2023-11-18T10:04:02.902Z,5.28
2023-11-18T10:05:02.889Z,5.27
2023-11-18T10:06:02.823Z,5.36
2023-11-18T10:07:02.793Z,5.35
2023-11-18T10:08:02.776Z,5.33
2023-11-18T10:09:02.732Z,5.39
2023-11-18T10:10:02.701Z,5.36
2023-11-18T10:11:02.675Z,5.39
2023-11-18T10:12:02.643Z,5.39
2023-11-18T10:13:02.624Z,5.38
2023-11-18T10:14:02.628Z,5.42
2023-11-18T10:15:02.569Z,5.43
2023-11-18T10:16:02.531Z,5.48
2023-11-18T10:17:02.520Z,5.49
2023-11-18T10:18:02.514Z,5.53
2023-11-18T10:19:02.529Z,5.51
2023-11-18T10:20:02.465Z,5.51
2023-11-18T10:21:02.399Z,5.51
2023-11-18T10:22:04.397Z,5.57
2023-11-18T10:23:02.364Z,5.49
2023-11-18T10:24:02.332Z,5.48
2023-11-18T10:25:02.726Z,5.68
2023-11-18T10:26:02.585Z,5.58
2023-11-18T10:27:02.231Z,5.60
2023-11-18T10:28:04.590Z,5.63
2023-11-18T10:29:02.193Z,5.61
2023-11-18T10:30:02.209Z,5.63
2023-11-18T10:31:02.115Z,5.60
2023-11-18T10:32:02.123Z,5.67
2023-11-18T10:33:02.095Z,5.65
2023-11-18T10:34:04.788Z,5.61
2023-11-18T10:35:02.075Z,5.60
2023-11-18T10:36:02.026Z,5.64
2023-11-18T10:37:01.946Z,5.63
2023-11-18T10:38:01.943Z,5.61
2023-11-18T10:39:01.907Z,5.67
2023-11-18T10:40:01.890Z,5.67
2023-11-18T10:41:01.852Z,5.63
2023-11-18T10:42:01.796Z,5.67
2023-11-18T10:43:01.785Z,5.76
2023-11-18T10:44:01.761Z,5.76
2023-11-18T10:45:01.732Z,5.72
2023-11-18T10:46:01.725Z,5.74
2023-11-18T10:47:01.736Z,5.81
2023-11-18T10:48:01.675Z,5.81
2023-11-18T10:49:01.653Z,5.75
2023-11-18T10:50:01.640Z,5.85
2023-11-18T10:51:01.581Z,5.78
2023-11-18T10:52:04.491Z,5.89
2023-11-18T10:53:01.530Z,5.78
2023-11-18T10:54:01.476Z,5.78
2023-11-18T10:55:01.457Z,5.79
2023-11-18T10:56:01.478Z,5.83
2023-11-18T10:57:01.398Z,5.94
2023-11-18T10:58:04.681Z,5.83
2023-11-18T10:59:01.378Z,5.86
2023-11-18T11:00:01.367Z,5.83
2023-11-18T11:01:01.284Z,5.78
2023-11-18T11:02:01.289Z,5.90
2023-11-18T11:03:01.372Z,5.91
2023-11-18T11:04:04.048Z,5.99
2023-11-18T11:05:01.188Z,5.96
2023-11-18T11:06:01.184Z,5.93
2023-11-18T11:07:01.136Z,5.96
2023-11-18T11:08:01.121Z,5.89
2023-11-18T11:09:01.058Z,6.00
2023-11-18T11:10:01.029Z,6.00
2023-11-18T11:11:01.025Z,6.03
2023-11-18T11:12:00.967Z,6.06
2023-11-18T11:13:00.954Z,6.01
2023-11-18T11:14:01.044Z,5.97
2023-11-18T11:15:01.020Z,6.01
2023-11-18T11:16:00.878Z,6.00
2023-11-18T11:17:00.908Z,6.00
2023-11-18T11:18:00.943Z,6.14
2023-11-18T11:19:00.783Z,6.03
2023-11-18T11:20:00.865Z,6.03
2023-11-18T11:21:00.733Z,6.11
2023-11-18T11:22:00.692Z,6.12
2023-11-18T11:23:00.839Z,6.18
2023-11-18T11:24:00.642Z,6.18
2023-11-18T11:25:00.614Z,6.18
2023-11-18T11:26:00.698Z,6.12
2023-11-18T11:27:00.555Z,6.19
2023-11-18T11:28:00.531Z,6.11
2023-11-18T11:29:00.531Z,6.12
2023-11-18T11:30:00.511Z,6.19
2023-11-18T11:31:00.610Z,6.30
2023-11-18T11:32:00.444Z,6.17
2023-11-18T11:33:00.401Z,6.09
2023-11-18T11:34:00.383Z,6.25
2023-11-18T11:35:00.354Z,6.22
2023-11-18T11:36:00.350Z,6.33
2023-11-18T11:37:00.282Z,6.30
2023-11-18T11:38:00.331Z,6.25
2023-11-18T11:39:00.249Z,6.34
2023-11-18T11:40:00.323Z,6.34
2023-11-18T11:41:00.262Z,6.31
2023-11-18T11:42:00.393Z,6.34
2023-11-18T11:43:00.121Z,6.34
2023-11-18T11:44:00.309Z,6.30
2023-11-18T11:45:00.061Z,6.37
2023-11-18T11:46:00.180Z,6.28
2023-11-18T11:47:00.059Z,6.36
2023-11-18T11:48:00.084Z,6.41
2023-11-18T11:48:59.949Z,6.41
2023-11-18T11:50:01.784Z,6.38
2023-11-18T11:50:59.893Z,6.37
2023-11-18T11:51:59.863Z,6.38
2023-11-18T11:52:59.868Z,6.46
2023-11-18T11:53:59.812Z,6.41
2023-11-18T11:54:59.804Z,6.36
2023-11-18T11:55:59.776Z,6.36
2023-11-18T11:56:59.725Z,6.36
2023-11-18T11:57:59.714Z,6.34
2023-11-18T11:58:59.711Z,6.40
2023-11-18T11:59:59.665Z,6.49
2023-11-18T12:00:59.614Z,6.38
2023-11-18T12:01:59.690Z,6.49
2023-11-18T12:02:59.585Z,6.52
2023-11-18T12:04:00.034Z,6.49
2023-11-18T12:04:59.869Z,6.46
2023-11-18T12:05:59.480Z,6.54
2023-11-18T12:07:08.738Z,6.49
2023-11-18T12:07:59.465Z,6.55
2023-11-18T12:08:59.393Z,6.56
2023-11-18T12:09:59.378Z,6.46
2023-11-18T12:10:59.381Z,6.44
2023-11-18T12:12:00.478Z,6.48
2023-11-18T12:12:59.293Z,6.55
2023-11-18T12:13:59.286Z,6.62
2023-11-18T12:14:59.245Z,6.59
2023-11-18T12:15:59.336Z,6.54
2023-11-18T12:16:59.211Z,6.62
2023-11-18T12:17:59.476Z,6.64
2023-11-18T12:18:59.119Z,6.61
2023-11-18T12:19:59.117Z,6.59
2023-11-18T12:20:59.099Z,6.55
2023-11-18T12:21:59.048Z,6.55
2023-11-18T12:22:59.064Z,6.61
2023-11-18T12:23:58.989Z,6.66
2023-11-18T12:24:59.338Z,6.56
2023-11-18T12:25:59.183Z,6.59
2023-11-18T12:26:58.932Z,6.59
2023-11-18T12:27:58.890Z,6.61
2023-11-18T12:28:58.904Z,6.67
2023-11-18T12:29:58.824Z,6.59
2023-11-18T12:30:58.980Z,6.56
2023-11-18T12:31:58.872Z,6.56
2023-11-18T12:32:58.795Z,6.62
2023-11-18T12:33:58.708Z,6.66
2023-11-18T12:34:58.725Z,6.61
2023-11-18T12:35:58.650Z,6.61
2023-11-18T12:36:58.622Z,6.64
2023-11-18T12:37:58.668Z,6.66
2023-11-18T12:38:58.600Z,6.59
2023-11-18T12:39:58.545Z,6.59
2023-11-18T12:40:58.521Z,6.62
2023-11-18T12:41:58.491Z,6.64
2023-11-18T12:42:58.492Z,6.62
2023-11-18T12:43:58.479Z,6.66
2023-11-18T12:44:58.401Z,6.62
2023-11-18T12:45:58.392Z,6.67
2023-11-18T12:46:58.364Z,6.64
2023-11-18T12:47:58.361Z,6.71
2023-11-18T12:48:58.299Z,6.71
2023-11-18T12:49:58.295Z,6.76
2023-11-18T12:50:58.233Z,6.73
2023-11-18T12:51:58.208Z,6.69
2023-11-18T12:52:58.260Z,6.71
2023-11-18T12:53:58.165Z,6.70
2023-11-18T12:54:58.127Z,6.76
2023-11-18T12:55:58.164Z,6.73
2023-11-18T12:56:58.081Z,6.73
2023-11-18T12:57:58.055Z,6.67
2023-11-18T12:58:58.071Z,6.76
2023-11-18T12:59:57.995Z,6.74
2023-11-18T13:00:58.037Z,6.73
2023-11-18T13:01:58.650Z,6.71
2023-11-18T13:02:58.056Z,6.73
2023-11-18T13:03:58.134Z,6.73
2023-11-18T13:04:57.896Z,6.70
2023-11-18T13:05:57.833Z,6.70
2023-11-18T13:06:57.802Z,6.69
2023-11-18T13:07:57.793Z,6.74
2023-11-18T13:08:57.741Z,6.71
2023-11-18T13:09:57.719Z,6.77
2023-11-18T13:10:57.693Z,6.73
2023-11-18T13:11:58.463Z,6.79
2023-11-18T13:12:57.634Z,6.77
2023-11-18T13:13:57.700Z,6.74
2023-11-18T13:14:57.606Z,6.74
2023-11-18T13:15:57.604Z,6.74
2023-11-18T13:16:57.606Z,6.74
2023-11-18T13:17:57.573Z,6.77
2023-11-18T13:18:57.593Z,6.76